createdAt,value
2022-09-03T00:01:29.751Z,2.00
2022-09-03T00:06:38.770Z,1.83
2022-09-03T00:12:22.379Z,1.67
2022-09-03T00:17:36.321Z,1.70
2022-09-03T00:22:46.978Z,1.53
2022-09-03T00:27:55.764Z,1.67
2022-09-03T00:33:07.277Z,1.43
2022-09-03T00:38:10.110Z,1.67
2022-09-03T00:43:23.260Z,1.60
2022-09-03T00:48:31.790Z,1.77
2022-09-03T00:54:03.504Z,1.75
2022-09-03T00:59:19.190Z,1.70
2022-09-03T01:04:25.299Z,1.50
2022-09-03T01:09:49.778Z,1.80
2022-09-03T01:15:27.878Z,1.80
2022-09-03T01:20:36.894Z,1.88
2022-09-03T01:25:52.970Z,1.70
2022-09-03T01:31:04.236Z,1.70
2022-09-03T01:36:16.343Z,1.70
2022-09-03T01:41:56.323Z,2.10
2022-09-03T01:47:11.805Z,1.80
2022-09-03T01:52:45.094Z,1.73
2022-09-03T01:57:51.328Z,1.90
2022-09-03T02:02:54.876Z,1.65
2022-09-03T02:07:58.034Z,1.70
2022-09-03T02:13:28.881Z,1.80
2022-09-03T02:18:37.643Z,1.80
2022-09-03T02:23:41.717Z,1.80
2022-09-03T02:28:45.171Z,1.55
2022-09-03T02:33:49.573Z,1.77
2022-09-03T02:38:52.328Z,1.88
2022-09-03T02:44:16.804Z,1.77
2022-09-03T02:49:19.588Z,1.60
2022-09-03T02:54:22.354Z,1.65
2022-09-03T02:59:25.234Z,1.80
2022-09-03T03:04:28.134Z,2.00
2022-09-03T03:09:31.016Z,1.60
2022-09-03T03:14:33.811Z,1.48
2022-09-03T03:19:36.595Z,1.90
2022-09-03T03:24:39.443Z,1.77
2022-09-03T03:29:42.180Z,1.77
2022-09-03T03:34:44.899Z,1.80
2022-09-03T03:39:47.590Z,1.73
2022-09-03T03:44:50.358Z,1.90
2022-09-03T03:49:53.093Z,2.00
2022-09-03T03:54:56.890Z,1.70
2022-09-03T03:59:59.619Z,2.07
2022-09-03T04:05:02.355Z,2.10
2022-09-03T04:10:05.763Z,1.95
2022-09-03T04:15:08.839Z,2.00
2022-09-03T04:20:11.607Z,1.77
2022-09-03T04:25:15.852Z,2.03
2022-09-03T04:30:19.233Z,2.13
2022-09-03T04:35:25.864Z,2.40
2022-09-03T04:40:29.259Z,2.00
2022-09-03T04:45:32.621Z,2.20
2022-09-03T04:50:35.928Z,2.67
2022-09-03T04:55:39.513Z,2.00
2022-09-03T05:00:42.402Z,2.30
2022-09-03T05:05:56.369Z,2.07
2022-09-03T05:11:00.778Z,2.42
2022-09-03T05:16:06.730Z,2.13
2022-09-03T05:21:15.326Z,2.30
2022-09-03T05:26:21.098Z,2.20
2022-09-03T05:31:26.835Z,2.07
2022-09-03T05:36:35.543Z,2.33
2022-09-03T05:41:38.597Z,2.47
2022-09-03T05:46:41.448Z,2.50
2022-09-03T05:51:45.019Z,2.03
2022-09-03T05:56:47.939Z,2.37
2022-09-03T06:01:53.003Z,1.90
2022-09-03T06:06:58.557Z,2.40
2022-09-03T06:12:04.011Z,2.90
2022-09-03T06:17:11.511Z,2.40
2022-09-03T06:22:14.414Z,2.60
2022-09-03T06:27:17.390Z,2.50
2022-09-03T06:32:20.481Z,2.50
2022-09-03T06:37:23.492Z,2.53
2022-09-03T06:42:26.649Z,2.55
2022-09-03T06:47:29.841Z,2.73
2022-09-03T06:52:32.628Z,2.30
2022-09-03T06:57:35.397Z,2.63
2022-09-03T07:02:42.835Z,2.40
2022-09-03T07:07:47.650Z,2.40
2022-09-03T07:12:50.667Z,3.00
2022-09-03T07:17:53.458Z,2.42
2022-09-03T07:22:57.436Z,2.77
2022-09-03T07:28:00.399Z,2.30
2022-09-03T07:33:04.861Z,4.00
2022-09-03T07:38:08.358Z,3.13
2022-09-03T07:43:11.260Z,2.67
2022-09-03T07:48:14.140Z,2.57
2022-09-03T07:53:17.608Z,2.75
2022-09-03T07:58:25.384Z,2.45
2022-09-03T08:03:28.313Z,2.77
2022-09-03T08:08:35.515Z,3.00
2022-09-03T08:13:44.787Z,1.00
2022-09-03T08:18:48.190Z,3.08
2022-09-03T08:23:53.498Z,2.70
2022-09-03T08:28:56.231Z,2.30
2022-09-03T08:34:01.707Z,3.38
2022-09-03T08:39:10.502Z,3.10
2022-09-03T08:44:34.999Z,3.10
2022-09-03T08:49:59.069Z,3.10
2022-09-03T08:55:43.580Z,3.40
2022-09-03T09:01:01.929Z,3.40
2022-09-03T09:06:10.607Z,3.27
2022-09-03T09:11:34.689Z,3.30
2022-09-03T09:17:00.360Z,2.78
2022-09-03T09:22:19.699Z,3.10
2022-09-03T09:27:23.450Z,3.78
2022-09-03T09:32:26.279Z,3.40
2022-09-03T09:37:29.355Z,2.20
2022-09-03T09:42:32.226Z,2.95
2022-09-03T09:47:40.280Z,3.40
2022-09-03T09:52:44.268Z,3.53
2022-09-03T09:57:54.386Z,3.40
2022-09-03T10:02:57.426Z,3.55
2022-09-03T10:08:22.450Z,3.08
2022-09-03T10:13:40.761Z,2.57
2022-09-03T10:18:45.281Z,2.30
2022-09-03T10:24:08.698Z,3.70
2022-09-03T10:29:12.548Z,3.88
2022-09-03T10:34:47.987Z,3.90
2022-09-03T10:40:12.442Z,3.87
2022-09-03T10:45:33.375Z,3.53
2022-09-03T10:50:58.597Z,3.40
2022-09-03T10:56:13.337Z,3.30
2022-09-03T11:01:34.382Z,4.00
2022-09-03T11:07:01.728Z,3.47
2022-09-03T11:12:20.790Z,3.28
2022-09-03T11:17:28.881Z,3.07
2022-09-03T11:22:36.289Z,3.03
2022-09-03T11:27:42.081Z,3.38
2022-09-03T11:32:55.908Z,3.20
2022-09-03T11:38:04.777Z,3.10
2022-09-03T11:43:25.118Z,2.90
2022-09-03T11:48:34.015Z,3.20
2022-09-03T11:53:37.687Z,2.67
2022-09-03T11:58:43.747Z,2.67
2022-09-03T12:03:54.578Z,2.75
2022-09-03T12:09:02.968Z,2.57
2022-09-03T12:14:20.923Z,2.70
2022-09-03T12:19:40.819Z,3.03
2022-09-03T12:24:45.331Z,3.00
2022-09-03T12:30:00.979Z,3.15
2022-09-03T12:46:15.438Z,3.15
2022-09-03T12:56:43.339Z,3.05
2022-09-03T13:01:56.444Z,2.40
2022-09-03T13:07:13.141Z,3.15
2022-09-03T13:12:33.330Z,3.22
2022-09-03T13:17:54.380Z,2.90
2022-09-03T13:23:15.939Z,2.55
2022-09-03T13:28:33.409Z,3.00
2022-09-03T13:33:44.944Z,2.85
2022-09-03T13:39:07.000Z,3.00
2022-09-03T13:44:36.079Z,2.60
2022-09-03T13:50:06.571Z,3.45
2022-09-03T13:55:16.542Z,1.77
2022-09-03T14:00:38.965Z,1.70
2022-09-03T14:05:47.909Z,2.47
2022-09-03T14:11:19.620Z,2.93
2022-09-03T14:16:47.453Z,2.63
2022-09-03T14:22:07.319Z,3.33
2022-09-03T14:27:10.885Z,3.40
2022-09-03T14:32:24.693Z,3.42
2022-09-03T14:37:45.604Z,2.97
2022-09-03T14:43:18.850Z,3.55
2022-09-03T14:48:44.373Z,3.53
2022-09-03T14:54:01.991Z,3.10
2022-09-03T14:59:19.224Z,3.40
2022-09-03T15:04:47.071Z,2.40
2022-09-03T15:10:13.186Z,3.35
2022-09-03T15:15:30.542Z,3.90
2022-09-03T15:20:48.592Z,3.72
2022-09-03T15:26:38.272Z,3.38
2022-09-03T15:31:59.543Z,3.67
2022-09-03T15:37:10.522Z,3.70
2022-09-03T15:42:28.190Z,4.40
2022-09-03T15:47:51.174Z,4.28
2022-09-03T15:53:05.282Z,4.20
2022-09-03T15:58:34.580Z,4.90
2022-09-03T16:03:56.459Z,4.07
2022-09-03T16:09:10.264Z,3.80
2022-09-03T16:14:42.091Z,4.05
2022-09-03T16:20:02.103Z,4.50
2022-09-03T16:25:18.053Z,4.00
2022-09-03T16:30:39.766Z,4.18
2022-09-03T16:36:15.052Z,4.67
2022-09-03T16:41:30.181Z,4.30
2022-09-03T16:46:51.520Z,4.28
2022-09-03T16:52:16.425Z,4.87
2022-09-03T16:57:44.560Z,4.68
2022-09-03T17:03:26.145Z,4.57
2022-09-03T17:09:08.321Z,4.32
2022-09-03T17:14:33.981Z,3.70
2022-09-03T17:19:55.822Z,4.30
2022-09-03T17:25:07.558Z,4.40
2022-09-03T17:30:51.370Z,4.97
2022-09-03T17:36:26.412Z,5.43
2022-09-03T17:41:36.565Z,5.43
2022-09-03T17:47:11.440Z,5.53
2022-09-03T17:52:37.550Z,5.75
2022-09-03T17:58:13.130Z,4.80
2022-09-03T18:03:28.032Z,5.65
2022-09-03T18:08:47.473Z,5.97
2022-09-03T18:14:15.702Z,5.43
2022-09-03T18:19:30.342Z,6.15
2022-09-03T18:25:02.454Z,6.07
2022-09-03T18:30:29.861Z,6.20
2022-09-03T18:35:51.988Z,5.88
2022-09-03T18:41:27.924Z,5.60
2022-09-03T18:53:01.063Z,5.50
2022-09-03T18:58:45.073Z,5.22
2022-09-03T19:04:30.864Z,5.10
2022-09-03T19:10:33.520Z,5.23
2022-09-03T19:16:31.240Z,5.10
2022-09-03T19:22:04.770Z,5.23
2022-09-03T19:27:59.909Z,5.30
2022-09-03T19:33:39.630Z,5.82
2022-09-03T19:39:10.130Z,5.77
2022-09-03T19:44:33.590Z,5.15
2022-09-03T19:50:16.740Z,5.97
2022-09-03T19:55:45.180Z,5.32
2022-09-03T20:01:06.849Z,6.43
2022-09-03T20:06:28.689Z,6.18
2022-09-03T20:11:31.959Z,5.90
2022-09-03T20:16:44.559Z,5.67
2022-09-03T20:22:01.129Z,6.10
2022-09-03T20:27:28.061Z,5.13
2022-09-03T20:32:55.170Z,5.18
2022-09-03T20:38:03.351Z,5.28
2022-09-03T20:43:19.960Z,4.83
2022-09-03T20:48:49.601Z,5.20
2022-09-03T20:54:09.003Z,5.07
2022-09-03T20:59:17.531Z,4.72
2022-09-03T21:04:30.460Z,5.30
2022-09-03T21:09:53.162Z,4.57
2022-09-03T21:15:05.410Z,4.57
2022-09-03T21:20:23.230Z,5.10
2022-09-03T21:25:33.662Z,4.32
2022-09-03T21:30:40.994Z,4.50
2022-09-03T21:35:49.868Z,3.80
2022-09-03T21:40:55.540Z,4.20
2022-09-03T21:46:09.793Z,3.90
2022-09-03T21:51:33.741Z,4.10
2022-09-03T21:57:02.484Z,4.00
2022-09-03T22:02:21.137Z,4.07
2022-09-03T22:07:36.861Z,4.40
2022-09-03T22:13:01.132Z,4.00
2022-09-03T22:18:10.632Z,4.20
2022-09-03T22:23:21.484Z,5.03
2022-09-03T22:29:02.554Z,4.70
2022-09-03T22:34:08.372Z,4.25
2022-09-03T22:39:37.769Z,4.33
2022-09-03T22:44:57.565Z,4.25
2022-09-03T22:50:41.832Z,4.93
2022-09-03T22:55:59.095Z,4.40
2022-09-03T23:01:31.837Z,4.50
2022-09-03T23:06:38.739Z,4.37
2022-09-03T23:11:47.819Z,4.68
2022-09-03T23:16:56.298Z,4.82
2022-09-03T23:22:06.834Z,4.60
2022-09-03T23:27:18.405Z,5.00
2022-09-03T23:32:21.676Z,4.53
2022-09-03T23:37:56.778Z,4.38
2022-09-03T23:43:37.707Z,5.22
2022-09-03T23:49:02.749Z,3.93
2022-09-03T23:54:12.081Z,4.68
2022-09-03T23:59:21.092Z,4.93
